createdAt,value
2019-03-22T00:01:40.566Z,32.17
2019-03-22T00:04:10.900Z,31.30
2019-03-22T00:06:42.290Z,33.70
2019-03-22T00:09:12.645Z,31.57
2019-03-22T00:11:42.985Z,31.57
2019-03-22T00:14:14.118Z,32.42
2019-03-22T00:16:44.837Z,28.57
2019-03-22T00:19:15.501Z,30.48
2019-03-22T00:21:45.840Z,30.00
2019-03-22T00:24:16.687Z,31.45
2019-03-22T00:26:47.030Z,32.78
2019-03-22T00:29:17.389Z,31.73
2019-03-22T00:31:47.777Z,31.12
2019-03-22T00:34:18.118Z,30.50
2019-03-22T00:36:48.460Z,29.63
2019-03-22T00:39:18.843Z,31.55
2019-03-22T00:41:49.872Z,28.52
2019-03-22T00:44:20.505Z,30.08
2019-03-22T00:46:51.161Z,31.95
2019-03-22T00:49:21.863Z,29.27
2019-03-22T00:51:52.208Z,32.42
2019-03-22T00:54:23.237Z,29.32
2019-03-22T00:56:54.303Z,29.57
2019-03-22T00:59:24.669Z,29.15
2019-03-22T01:01:55.629Z,31.30
2019-03-22T01:04:25.995Z,29.32
2019-03-22T01:06:56.718Z,31.95
2019-03-22T01:09:27.104Z,29.35
2019-03-22T01:11:57.875Z,29.10
2019-03-22T01:14:28.377Z,31.82
2019-03-22T01:16:59.663Z,30.60
2019-03-22T01:19:30.468Z,30.35
2019-03-22T01:22:01.133Z,31.17
2019-03-22T01:24:31.859Z,30.52
2019-03-22T01:27:02.238Z,33.23
2019-03-22T01:29:33.109Z,30.10
2019-03-22T01:32:03.572Z,32.63
2019-03-22T01:34:34.306Z,31.57
2019-03-22T01:37:04.687Z,31.23
2019-03-22T01:39:35.051Z,31.20
2019-03-22T01:42:05.447Z,30.48
2019-03-22T01:44:36.064Z,30.12
2019-03-22T01:47:06.431Z,31.15
2019-03-22T01:49:37.176Z,31.07
2019-03-22T01:52:07.542Z,32.70
2019-03-22T01:54:38.762Z,29.77
2019-03-22T01:57:09.372Z,30.88
2019-03-22T01:59:39.722Z,29.32
2019-03-22T02:02:10.070Z,30.68
2019-03-22T02:04:40.885Z,30.37
2019-03-22T02:07:11.499Z,30.15
2019-03-22T02:09:41.848Z,31.70
2019-03-22T02:12:12.598Z,34.05
2019-03-22T02:14:43.726Z,32.83
2019-03-22T02:17:14.081Z,31.50
2019-03-22T02:19:44.419Z,30.95
2019-03-22T02:22:15.107Z,30.08
2019-03-22T02:24:46.139Z,31.90
2019-03-22T02:27:16.508Z,30.23
2019-03-22T02:29:46.870Z,29.10
2019-03-22T02:32:17.247Z,30.80
2019-03-22T02:34:47.603Z,30.70
2019-03-22T02:37:18.328Z,29.48
2019-03-22T02:39:48.689Z,30.00
2019-03-22T02:42:19.376Z,29.37
2019-03-22T02:44:49.909Z,30.02
2019-03-22T02:47:20.290Z,29.20
2019-03-22T02:49:50.685Z,29.75
2019-03-22T02:52:21.728Z,28.02
2019-03-22T02:54:52.111Z,30.10
2019-03-22T02:57:22.739Z,30.35
2019-03-22T02:59:53.148Z,28.95
2019-03-22T03:02:23.513Z,32.30
2019-03-22T03:04:54.240Z,29.63
2019-03-22T03:07:24.573Z,31.97
2019-03-22T03:09:55.317Z,32.05
2019-03-22T03:12:26.077Z,29.65
2019-03-22T03:14:56.442Z,28.67
2019-03-22T03:17:27.242Z,31.80
2019-03-22T03:19:57.972Z,30.68
2019-03-22T03:22:29.096Z,29.77
2019-03-22T03:24:59.802Z,30.40
2019-03-22T03:27:30.785Z,29.67
2019-03-22T03:30:01.164Z,30.60
2019-03-22T03:32:31.807Z,30.35
2019-03-22T03:35:02.514Z,32.58
2019-03-22T03:37:33.322Z,31.82
2019-03-22T03:40:10.203Z,32.17
2019-03-22T03:42:40.883Z,30.23
2019-03-22T03:45:36.181Z,30.85
2019-03-22T03:48:10.556Z,29.20
2019-03-22T03:50:41.278Z,31.55
2019-03-22T03:53:11.637Z,31.95
2019-03-22T03:55:41.975Z,30.75
2019-03-22T03:58:12.683Z,32.33
2019-03-22T04:00:43.330Z,33.48
2019-03-22T04:03:13.958Z,33.98
2019-03-22T04:05:44.352Z,32.95
2019-03-22T04:08:14.706Z,35.50
2019-03-22T04:10:45.351Z,33.18
2019-03-22T04:13:16.112Z,33.63
2019-03-22T04:15:46.456Z,38.17
2019-03-22T04:18:16.824Z,35.08
2019-03-22T04:20:47.179Z,35.10
2019-03-22T04:23:17.904Z,34.67
2019-03-22T04:25:48.259Z,34.08
2019-03-22T04:28:19.465Z,34.88
2019-03-22T04:30:49.814Z,44.18
2019-03-22T04:33:20.524Z,39.67
2019-03-22T04:35:50.900Z,38.78
2019-03-22T04:38:21.587Z,33.98
2019-03-22T04:40:52.746Z,36.05
2019-03-22T04:43:23.100Z,38.58
2019-03-22T04:45:54.009Z,37.03
2019-03-22T04:48:31.133Z,46.37
2019-03-22T04:51:01.518Z,45.85
2019-03-22T04:53:39.539Z,43.60
2019-03-22T04:56:12.197Z,52.58
2019-03-22T04:58:42.949Z,50.53
2019-03-22T05:01:13.449Z,51.90
2019-03-22T05:03:44.857Z,49.03
2019-03-22T05:06:16.099Z,38.95
2019-03-22T05:08:46.584Z,33.03
2019-03-22T05:11:17.247Z,34.07
2019-03-22T05:13:47.674Z,32.05
2019-03-22T05:16:18.041Z,35.70
2019-03-22T05:18:49.171Z,38.30
2019-03-22T05:21:19.634Z,38.33
2019-03-22T05:23:50.251Z,37.03
2019-03-22T05:26:21.255Z,37.40
2019-03-22T05:28:52.095Z,34.53
2019-03-22T05:31:27.363Z,37.73
2019-03-22T05:33:58.095Z,37.13
2019-03-22T05:36:28.735Z,37.50
2019-03-22T05:38:59.443Z,37.27
2019-03-22T05:41:29.831Z,36.97
2019-03-22T05:44:00.533Z,37.20
2019-03-22T05:46:30.908Z,40.43
2019-03-22T05:49:01.241Z,37.63
2019-03-22T05:51:31.616Z,38.60
2019-03-22T05:54:01.964Z,38.17
2019-03-22T05:56:32.363Z,38.87
2019-03-22T05:59:03.053Z,38.50
2019-03-22T06:01:33.484Z,38.53
2019-03-22T06:04:03.903Z,37.23
2019-03-22T06:06:34.574Z,37.67
2019-03-22T06:09:08.653Z,40.20
2019-03-22T06:11:39.073Z,38.83
2019-03-22T06:14:09.724Z,37.77
2019-03-22T06:16:40.386Z,38.53
2019-03-22T06:19:11.094Z,36.30
2019-03-22T06:21:41.752Z,36.37
2019-03-22T06:24:12.156Z,39.03
2019-03-22T06:26:42.895Z,36.80
2019-03-22T06:29:13.242Z,37.08
2019-03-22T06:31:43.634Z,38.03
2019-03-22T06:34:14.011Z,35.53
2019-03-22T06:36:44.821Z,36.90
2019-03-22T06:39:15.574Z,36.63
2019-03-22T06:41:46.188Z,36.03
2019-03-22T06:44:16.653Z,34.23
2019-03-22T06:46:47.380Z,37.00
2019-03-22T06:49:17.755Z,34.37
2019-03-22T06:51:48.089Z,35.80
2019-03-22T06:54:30.680Z,35.97
2019-03-22T06:56:51.198Z,37.63
2019-03-22T06:59:21.560Z,35.73
2019-03-22T07:01:52.588Z,36.20
2019-03-22T07:04:22.948Z,39.53
2019-03-22T07:06:53.650Z,35.70
2019-03-22T07:09:24.288Z,35.20
2019-03-22T07:11:54.661Z,36.93
2019-03-22T07:14:25.494Z,36.73
2019-03-22T07:16:58.723Z,36.20
2019-03-22T07:19:28.767Z,35.07
2019-03-22T07:21:59.139Z,34.93
2019-03-22T07:24:29.496Z,34.43
2019-03-22T07:27:00.354Z,34.50
2019-03-22T07:29:30.720Z,37.53
2019-03-22T07:32:01.077Z,35.40
2019-03-22T07:34:31.460Z,35.50
2019-03-22T07:37:02.106Z,34.67
2019-03-22T07:39:32.459Z,35.73
2019-03-22T07:44:44.017Z,30.83
2019-03-22T07:47:14.638Z,30.73
2019-03-22T07:49:45.403Z,30.53
2019-03-22T07:52:16.034Z,32.77
2019-03-22T07:54:46.407Z,31.80
2019-03-22T07:57:17.427Z,31.43
2019-03-22T07:59:48.619Z,32.03
2019-03-22T08:02:19.766Z,30.57
2019-03-22T08:04:50.941Z,30.00
2019-03-22T08:07:21.694Z,31.90
2019-03-22T08:09:52.755Z,28.70
2019-03-22T08:12:23.302Z,31.30
2019-03-22T08:14:53.692Z,28.27
2019-03-22T08:17:24.352Z,29.63
2019-03-22T08:19:57.277Z,29.23
2019-03-22T08:22:27.155Z,28.30
2019-03-22T08:24:57.908Z,30.30
2019-03-22T08:27:28.607Z,28.60
2019-03-22T08:29:59.005Z,29.83
2019-03-22T08:32:29.448Z,30.93
2019-03-22T08:34:59.788Z,31.33
2019-03-22T08:37:30.567Z,31.97
2019-03-22T08:40:00.932Z,29.53
2019-03-22T08:42:31.318Z,30.37
2019-03-22T08:45:01.685Z,32.00
2019-03-22T08:47:34.280Z,32.90
2019-03-22T08:50:06.075Z,30.33
2019-03-22T08:52:36.759Z,31.10
2019-03-22T08:55:07.417Z,31.90
2019-03-22T08:57:37.785Z,31.33
2019-03-22T09:00:12.568Z,31.60
2019-03-22T09:02:42.966Z,29.43
2019-03-22T09:05:13.623Z,30.63
2019-03-22T09:07:44.002Z,31.60
2019-03-22T09:10:14.359Z,31.23
2019-03-22T09:12:44.780Z,31.63
2019-03-22T09:15:15.915Z,30.87
2019-03-22T09:17:47.454Z,28.93
2019-03-22T09:20:17.801Z,28.20
2019-03-22T09:22:48.191Z,27.77
2019-03-22T09:25:18.534Z,26.10
2019-03-22T09:27:49.317Z,27.10
2019-03-22T09:30:20.051Z,29.60
2019-03-22T09:32:50.703Z,26.40
2019-03-22T09:35:21.082Z,23.47
2019-03-22T09:37:51.820Z,25.63
2019-03-22T09:40:22.492Z,23.83
2019-03-22T09:42:53.293Z,24.97
2019-03-22T09:45:23.770Z,26.30
2019-03-22T09:47:54.081Z,26.10
2019-03-22T09:50:25.248Z,27.30
2019-03-22T09:52:55.637Z,28.13
2019-03-22T09:55:26.017Z,30.37
2019-03-22T09:57:56.496Z,28.60
2019-03-22T10:00:36.903Z,29.30
2019-03-22T10:03:07.631Z,28.97
2019-03-22T10:05:38.381Z,29.67
2019-03-22T10:08:08.804Z,31.83
2019-03-22T10:10:39.663Z,32.13
2019-03-22T10:13:10.034Z,30.70
2019-03-22T10:15:40.413Z,33.80
2019-03-22T10:18:11.106Z,35.27
2019-03-22T10:20:41.773Z,35.50
2019-03-22T10:23:12.126Z,35.10
2019-03-22T10:25:42.846Z,34.53
2019-03-22T10:28:13.747Z,34.17
2019-03-22T10:30:44.855Z,32.30
2019-03-22T10:33:22.478Z,31.20
2019-03-22T10:35:47.308Z,29.43
2019-03-22T10:38:30.719Z,29.10
2019-03-22T10:40:50.101Z,27.90
2019-03-22T10:43:20.472Z,29.30
2019-03-22T10:45:50.887Z,28.67
2019-03-22T10:48:21.406Z,28.53
2019-03-22T10:50:52.059Z,25.40
2019-03-22T10:53:22.418Z,28.07
2019-03-22T10:55:53.232Z,27.77
2019-03-22T10:58:23.984Z,28.90
2019-03-22T11:00:54.790Z,30.33
2019-03-22T11:03:25.895Z,31.80
2019-03-22T11:05:56.647Z,26.40
2019-03-22T11:08:27.035Z,26.93
2019-03-22T11:10:57.406Z,24.63
2019-03-22T11:13:28.115Z,25.03
2019-03-22T11:15:58.487Z,25.33
2019-03-22T11:18:37.014Z,26.70
2019-03-22T11:21:05.521Z,26.43
2019-03-22T11:23:33.748Z,25.10
2019-03-22T11:26:04.625Z,25.83
2019-03-22T11:28:35.281Z,24.87
2019-03-22T11:31:05.645Z,24.10
2019-03-22T11:33:36.020Z,26.00
2019-03-22T11:36:07.103Z,24.93
2019-03-22T11:38:37.477Z,24.20
2019-03-22T11:41:08.186Z,25.23
2019-03-22T11:43:38.616Z,28.23
2019-03-22T11:46:09.375Z,28.00
2019-03-22T11:48:39.728Z,26.97
2019-03-22T11:51:10.463Z,27.43
2019-03-22T11:53:40.856Z,26.73
2019-03-22T11:56:11.963Z,27.87
2019-03-22T11:58:42.366Z,26.40
2019-03-22T12:01:19.657Z,26.23
2019-03-22T12:03:44.769Z,29.60
2019-03-22T12:06:15.858Z,27.93
2019-03-22T12:08:46.249Z,24.80
2019-03-22T12:11:16.639Z,27.43
2019-03-22T12:13:47.364Z,25.50
2019-03-22T12:16:18.056Z,26.40
2019-03-22T12:18:50.380Z,26.87
2019-03-22T12:21:20.673Z,24.47
2019-03-22T12:23:51.725Z,26.93
2019-03-22T12:26:22.567Z,25.33
2019-03-22T12:28:52.955Z,25.40
2019-03-22T12:31:23.745Z,25.57
2019-03-22T12:33:54.086Z,27.90
2019-03-22T12:36:24.691Z,26.37
2019-03-22T12:39:14.867Z,25.53
2019-03-22T12:41:45.610Z,26.37
2019-03-22T12:44:16.355Z,26.37
2019-03-22T12:46:49.183Z,27.03
2019-03-22T12:49:19.485Z,27.60
2019-03-22T12:51:50.176Z,28.50
2019-03-22T12:54:20.541Z,25.17
2019-03-22T12:56:51.292Z,25.17
2019-03-22T12:59:22.039Z,25.07
2019-03-22T13:01:52.394Z,25.20
2019-03-22T13:04:22.765Z,25.00
2019-03-22T13:06:53.819Z,23.80
2019-03-22T13:09:24.194Z,25.13
2019-03-22T13:11:54.937Z,25.77
2019-03-22T13:14:25.321Z,25.70
2019-03-22T13:16:55.685Z,24.00
2019-03-22T13:19:26.494Z,24.27
2019-03-22T13:21:56.911Z,24.23
2019-03-22T13:24:27.327Z,25.53
2019-03-22T13:26:57.667Z,23.77
2019-03-22T13:29:28.014Z,22.27
2019-03-22T13:31:58.395Z,22.73
2019-03-22T13:34:28.740Z,23.43
2019-03-22T13:36:59.515Z,25.63
2019-03-22T13:39:30.255Z,22.50
2019-03-22T13:42:00.903Z,22.90
2019-03-22T13:44:31.556Z,23.13
2019-03-22T13:47:02.503Z,22.93
2019-03-22T13:49:32.872Z,22.93
2019-03-22T13:52:03.524Z,22.63
2019-03-22T13:54:33.948Z,20.87
2019-03-22T13:57:04.668Z,21.70
2019-03-22T13:59:35.356Z,20.53
2019-03-22T14:02:05.699Z,22.17
2019-03-22T14:04:36.091Z,22.23
2019-03-22T14:07:06.774Z,20.30
2019-03-22T14:09:37.480Z,21.70
2019-03-22T14:12:08.220Z,20.57
2019-03-22T14:14:38.620Z,20.00
2019-03-22T14:17:09.001Z,20.17
2019-03-22T14:19:39.731Z,21.80
2019-03-22T14:22:10.078Z,20.57
2019-03-22T14:24:40.556Z,22.20
2019-03-22T14:27:11.211Z,20.70
2019-03-22T14:29:42.132Z,22.23
2019-03-22T14:32:13.175Z,21.57
2019-03-22T14:34:44.321Z,20.80
2019-03-22T14:37:15.078Z,20.37
2019-03-22T14:39:45.815Z,21.50
2019-03-22T14:42:16.551Z,22.37
2019-03-22T14:44:47.283Z,22.10
2019-03-22T14:47:17.660Z,19.97
2019-03-22T14:49:48.029Z,21.20
2019-03-22T14:52:18.755Z,20.13
2019-03-22T14:54:49.220Z,20.77
2019-03-22T14:57:19.574Z,20.70
2019-03-22T14:59:58.649Z,21.13
2019-03-22T15:02:22.098Z,22.00
2019-03-22T15:04:52.469Z,20.00
2019-03-22T15:07:23.444Z,21.10
2019-03-22T15:09:54.118Z,20.90
2019-03-22T15:12:24.489Z,21.50
2019-03-22T15:15:02.661Z,20.87
2019-03-22T15:17:53.134Z,21.03
2019-03-22T15:20:41.316Z,20.03
2019-03-22T15:23:30.022Z,22.20
2019-03-22T15:26:04.907Z,23.43
2019-03-22T15:28:42.763Z,21.90
2019-03-22T15:31:18.654Z,24.00
2019-03-22T15:33:50.729Z,22.23
2019-03-22T15:36:41.467Z,25.50
2019-03-22T15:39:30.682Z,22.50
2019-03-22T15:42:01.343Z,21.83
2019-03-22T15:44:31.716Z,23.77
2019-03-22T15:47:02.417Z,21.53
2019-03-22T15:49:33.158Z,22.80
2019-03-22T15:52:03.637Z,23.37
2019-03-22T15:54:34.006Z,22.73
2019-03-22T15:57:04.403Z,22.77
2019-03-22T15:59:34.756Z,23.07
2019-03-22T16:02:05.795Z,23.23
2019-03-22T16:04:36.164Z,21.67
2019-03-22T16:07:07.457Z,24.13
2019-03-22T16:09:38.207Z,22.60
2019-03-22T16:12:08.852Z,22.63
2019-03-22T16:14:39.998Z,24.03
2019-03-22T16:17:10.615Z,23.10
2019-03-22T16:19:41.503Z,24.53
2019-03-22T16:22:12.183Z,26.00
2019-03-22T16:24:42.943Z,23.97
2019-03-22T16:27:13.314Z,24.30
2019-03-22T16:29:43.672Z,23.17
2019-03-22T16:32:14.416Z,26.20
2019-03-22T16:34:44.775Z,25.70
2019-03-22T16:37:15.151Z,29.97
2019-03-22T16:39:46.354Z,31.27
2019-03-22T16:42:16.741Z,36.17
2019-03-22T16:44:47.599Z,28.33
2019-03-22T16:47:17.960Z,25.17
2019-03-22T16:49:48.329Z,25.87
2019-03-22T16:52:19.114Z,26.20
2019-03-22T16:54:49.831Z,23.20
2019-03-22T16:57:20.554Z,22.27
2019-03-22T16:59:50.999Z,24.60
2019-03-22T17:02:21.733Z,22.97
2019-03-22T17:04:52.117Z,28.60
2019-03-22T17:07:22.750Z,38.47
2019-03-22T17:09:53.126Z,24.17
2019-03-22T17:12:23.858Z,25.10
2019-03-22T17:14:54.420Z,25.50
2019-03-22T17:17:25.052Z,24.87
2019-03-22T17:19:55.391Z,25.03
2019-03-22T17:22:25.746Z,25.20
2019-03-22T17:24:58.297Z,26.27
2019-03-22T17:27:28.605Z,24.53
2019-03-22T17:29:58.976Z,24.70
2019-03-22T17:32:29.686Z,25.23
2019-03-22T17:35:00.662Z,23.40
2019-03-22T17:37:31.455Z,24.60
2019-03-22T17:40:02.096Z,32.63
2019-03-22T17:42:32.431Z,34.63
2019-03-22T17:45:03.070Z,36.13
2019-03-22T17:47:34.361Z,31.80
2019-03-22T17:50:07.481Z,33.40
2019-03-22T17:52:38.109Z,29.27
2019-03-22T17:55:10.585Z,30.27
2019-03-22T17:57:41.235Z,28.20
2019-03-22T18:00:19.862Z,26.43
2019-03-22T18:02:50.204Z,27.95
2019-03-22T18:05:20.875Z,29.15
2019-03-22T18:07:51.356Z,27.83
2019-03-22T18:10:21.979Z,26.77
2019-03-22T18:12:52.616Z,26.52
2019-03-22T18:15:23.028Z,26.80
2019-03-22T18:17:53.372Z,28.60
2019-03-22T18:20:24.586Z,26.80
2019-03-22T18:22:54.969Z,28.23
2019-03-22T18:25:25.677Z,28.55
2019-03-22T18:27:56.071Z,26.90
2019-03-22T18:30:26.412Z,28.70
2019-03-22T18:32:56.767Z,30.48
2019-03-22T18:35:27.132Z,31.73
2019-03-22T18:37:57.485Z,30.45
2019-03-22T18:40:28.418Z,32.45
2019-03-22T18:42:59.275Z,31.20
2019-03-22T18:45:30.152Z,30.32
2019-03-22T18:48:00.576Z,34.63
2019-03-22T18:50:31.024Z,32.67
2019-03-22T18:53:01.884Z,32.20
2019-03-22T18:55:32.597Z,34.38
2019-03-22T18:58:03.303Z,34.63
2019-03-22T19:00:42.651Z,34.48
2019-03-22T19:03:13.326Z,35.75
2019-03-22T19:05:44.028Z,35.98
2019-03-22T19:08:14.856Z,38.02
2019-03-22T19:10:45.601Z,35.33
2019-03-22T19:13:15.957Z,36.80
2019-03-22T19:15:46.400Z,35.90
2019-03-22T19:18:17.464Z,38.40
2019-03-22T19:20:48.187Z,37.85
2019-03-22T19:23:18.849Z,39.10
2019-03-22T19:25:49.198Z,40.52
2019-03-22T19:28:19.571Z,37.48
2019-03-22T19:30:50.366Z,38.70
2019-03-22T19:33:21.052Z,36.55
2019-03-22T19:35:51.528Z,41.42
2019-03-22T19:38:21.900Z,41.68
2019-03-22T19:40:52.238Z,40.10
2019-03-22T19:43:23.328Z,41.33
2019-03-22T19:45:54.106Z,40.73
2019-03-22T19:48:24.474Z,38.92
2019-03-22T19:50:55.596Z,39.40
2019-03-22T19:53:25.990Z,38.42
2019-03-22T19:55:56.354Z,38.23
2019-03-22T19:58:26.690Z,37.70
2019-03-22T20:00:57.713Z,38.40
2019-03-22T20:03:28.340Z,36.20
2019-03-22T20:05:58.712Z,38.78
2019-03-22T20:08:29.751Z,40.45
2019-03-22T20:11:00.126Z,39.73
2019-03-22T20:13:30.506Z,38.23
2019-03-22T20:16:01.204Z,37.65
2019-03-22T20:18:31.575Z,37.58
2019-03-22T20:21:02.384Z,41.77
2019-03-22T20:23:33.390Z,67.25
2019-03-22T20:26:04.731Z,42.48
2019-03-22T20:28:35.324Z,39.30
2019-03-22T20:31:05.899Z,41.30
2019-03-22T20:33:36.718Z,40.38
2019-03-22T20:36:07.422Z,39.42
2019-03-22T20:38:37.786Z,40.17
2019-03-22T20:41:08.147Z,39.00
2019-03-22T20:43:38.711Z,41.55
2019-03-22T20:46:10.147Z,39.55
2019-03-22T20:48:40.652Z,37.20
2019-03-22T20:51:11.359Z,40.35
2019-03-22T20:53:41.787Z,36.63
2019-03-22T20:56:12.419Z,40.43
2019-03-22T20:58:43.099Z,39.73
2019-03-22T21:01:13.480Z,40.73
2019-03-22T21:03:43.841Z,37.83
2019-03-22T21:06:14.209Z,40.23
2019-03-22T21:08:44.535Z,39.90
2019-03-22T21:11:15.341Z,38.88
2019-03-22T21:13:45.713Z,38.63
2019-03-22T21:16:16.104Z,41.40
2019-03-22T21:18:46.941Z,39.35
2019-03-22T21:21:17.304Z,40.52
2019-03-22T21:23:47.670Z,40.67
2019-03-22T21:26:18.007Z,42.60
2019-03-22T21:28:48.710Z,47.85
2019-03-22T21:31:19.238Z,48.20
2019-03-22T21:33:49.873Z,52.05
2019-03-22T21:36:20.213Z,47.90
2019-03-22T21:38:50.861Z,44.98
2019-03-22T21:41:21.225Z,48.73
2019-03-22T21:43:51.993Z,46.35
2019-03-22T21:46:23.163Z,44.05
2019-03-22T21:48:54.053Z,44.23
2019-03-22T21:51:24.686Z,44.15
2019-03-22T21:53:55.053Z,41.18
2019-03-22T21:56:25.406Z,41.15
2019-03-22T21:58:55.772Z,38.23
2019-03-22T22:01:26.531Z,42.43
2019-03-22T22:03:57.016Z,39.92
2019-03-22T22:06:27.652Z,40.48
2019-03-22T22:08:58.036Z,39.30
2019-03-22T22:11:28.796Z,38.55
2019-03-22T22:13:59.237Z,38.67
2019-03-22T22:16:29.638Z,38.92
2019-03-22T22:19:00.640Z,38.83
2019-03-22T22:21:31.277Z,37.10
2019-03-22T22:24:02.039Z,37.83
2019-03-22T22:26:32.892Z,38.02
2019-03-22T22:29:03.562Z,37.55
2019-03-22T22:31:33.982Z,37.98
2019-03-22T22:34:04.711Z,39.30
2019-03-22T22:36:35.044Z,36.58
2019-03-22T22:39:07.021Z,37.85
2019-03-22T22:41:37.390Z,37.13
2019-03-22T22:44:07.725Z,36.45
2019-03-22T22:46:38.140Z,36.60
2019-03-22T22:49:08.872Z,37.80
2019-03-22T22:51:40.455Z,37.95
2019-03-22T22:54:11.211Z,35.88
2019-03-22T22:56:41.813Z,36.03
2019-03-22T22:59:12.749Z,38.00
2019-03-22T23:01:44.051Z,35.90
2019-03-22T23:04:14.712Z,41.13
2019-03-22T23:06:45.163Z,39.20
2019-03-22T23:09:16.367Z,36.95
2019-03-22T23:11:47.327Z,35.98
2019-03-22T23:14:17.681Z,35.68
2019-03-22T23:16:48.070Z,36.42
2019-03-22T23:19:18.847Z,36.70
2019-03-22T23:21:49.546Z,38.28
2019-03-22T23:24:19.928Z,36.60
2019-03-22T23:26:50.522Z,34.85
2019-03-22T23:29:20.880Z,36.42
2019-03-22T23:31:51.274Z,34.58
2019-03-22T23:34:22.288Z,35.08
2019-03-22T23:36:52.917Z,36.23
2019-03-22T23:39:23.565Z,34.25
2019-03-22T23:41:54.210Z,38.17
2019-03-22T23:44:24.851Z,35.88
2019-03-22T23:46:55.281Z,37.08
2019-03-22T23:49:25.619Z,37.85
2019-03-22T23:51:55.976Z,35.05
2019-03-22T23:54:26.798Z,38.48
2019-03-22T23:56:57.412Z,36.42
2019-03-22T23:59:47.257Z,38.92
